Time;durP1;ratioP1;P1;durP2;ratioP2;P2;SDS_P1;SDS_P2;PMS_P1;PMS_P2;Temp;Humidity;BMP_temperature;BMP_pressure;BME280_temperature;BME280_humidity;BME280_pressure;Samples;Min_cycle;Max_cycle;Signal;HPM_P1;HPM_P2
2021/08/19 00:01:35;;;;;;;3.37;2.97;;;13.40;99.90;;;;;;4174077;28;20029;-62
2021/08/19 00:03:36;;;;;;;3.33;2.73;;;13.40;99.90;;;;;;4173520;28;20041;-62
2021/08/19 00:05:38;;;;;;;5.03;2.60;;;13.40;99.90;;;;;;4173969;28;20424;-62
2021/08/19 00:07:39;;;;;;;7.43;2.70;;;13.40;99.90;;;;;;4172700;28;20438;-63
2021/08/19 00:09:40;;;;;;;3.60;2.87;;;13.40;99.90;;;;;;4173999;28;20041;-62
2021/08/19 00:11:41;;;;;;;4.00;3.07;;;13.40;99.90;;;;;;4172404;28;20079;-62
2021/08/19 00:13:42;;;;;;;3.93;2.60;;;13.40;99.90;;;;;;4174042;28;20076;-62
2021/08/19 00:15:43;;;;;;;4.10;3.17;;;13.40;99.90;;;;;;4173474;28;20029;-62
2021/08/19 00:17:44;;;;;;;4.23;2.93;;;13.40;99.90;;;;;;4173256;28;20440;-62
2021/08/19 00:19:45;;;;;;;4.53;2.90;;;13.40;99.90;;;;;;4172642;28;20040;-61
2021/08/19 00:21:47;;;;;;;5.47;2.87;;;13.40;99.90;;;;;;4172437;28;20029;-63
2021/08/19 00:23:48;;;;;;;4.03;2.87;;;13.30;99.90;;;;;;4173240;28;20927;-62
2021/08/19 00:25:49;;;;;;;7.90;3.50;;;13.30;99.90;;;;;;4172603;28;20033;-63
2021/08/19 00:27:51;;;;;;;4.67;3.10;;;13.30;99.90;;;;;;4173627;28;20447;-62
2021/08/19 00:29:52;;;;;;;4.27;3.10;;;13.30;99.90;;;;;;4172967;28;20071;-62
2021/08/19 00:31:53;;;;;;;5.03;2.67;;;13.20;99.90;;;;;;4173153;28;20041;-63
2021/08/19 00:33:54;;;;;;;2.93;2.53;;;13.20;99.90;;;;;;4172310;28;20041;-64
2021/08/19 00:35:57;;;;;;;3.47;2.57;;;13.20;99.90;;;;;;4173798;28;20037;-63
2021/08/19 00:37:58;;;;;;;6.27;2.87;;;13.20;99.90;;;;;;4172233;28;20844;-62
2021/08/19 00:40:00;;;;;;;3.33;2.70;;;13.20;99.90;;;;;;4173842;28;20021;-63
2021/08/19 00:42:01;;;;;;;4.73;2.70;;;13.20;99.90;;;;;;4172838;28;20021;-63
2021/08/19 00:44:04;;;;;;;3.83;2.80;;;13.20;99.90;;;;;;4173945;28;20033;-62
2021/08/19 00:46:31;;;;;;;3.43;2.80;;;13.10;99.90;;;;;;4172923;28;20075;-62
2021/08/19 00:48:35;;;;;;;3.23;2.43;;;13.20;99.90;;;;;;4173499;28;20578;-63
2021/08/19 00:50:39;;;;;;;5.70;2.97;;;13.20;99.90;;;;;;4172463;28;20032;-63
2021/08/19 00:52:41;;;;;;;2.90;2.60;;;13.20;99.90;;;;;;4172585;28;20496;-63
2021/08/19 00:54:43;;;;;;;3.37;2.80;;;13.20;99.90;;;;;;4172746;28;20110;-63
2021/08/19 00:56:44;;;;;;;4.53;2.87;;;13.10;99.90;;;;;;4173840;28;20029;-62
2021/08/19 00:58:45;;;;;;;4.20;2.60;;;13.10;99.90;;;;;;4172580;28;20424;-62
2021/08/19 01:00:46;;;;;;;3.90;2.60;;;13.00;99.90;;;;;;4173205;28;20083;-63
2021/08/19 01:02:48;;;;;;;4.40;2.63;;;13.00;99.90;;;;;;4171926;28;20025;-62
2021/08/19 01:04:49;;;;;;;3.83;2.50;;;13.00;99.90;;;;;;4172882;28;20052;-61
2021/08/19 01:06:50;;;;;;;6.77;2.43;;;12.90;99.90;;;;;;4173304;28;20048;-63
2021/08/19 01:08:54;;;;;;;5.53;2.90;;;12.90;99.90;;;;;;4172651;28;20037;-63
2021/08/19 01:10:56;;;;;;;5.40;2.70;;;12.80;99.90;;;;;;4173231;28;20037;-63
2021/08/19 01:12:57;;;;;;;7.47;2.80;;;12.80;99.90;;;;;;4172507;28;20021;-64
2021/08/19 01:14:58;;;;;;;4.50;2.30;;;12.70;99.90;;;;;;4173399;28;20440;-61
2021/08/19 01:17:06;;;;;;;3.97;2.73;;;12.60;99.90;;;;;;4171489;28;20033;-64
2021/08/19 01:19:07;;;;;;;7.23;3.53;;;12.60;99.90;;;;;;4173542;28;20037;-64
2021/08/19 01:21:10;;;;;;;7.07;2.73;;;12.50;99.90;;;;;;4170701;28;20036;-63
2021/08/19 01:23:12;;;;;;;4.07;2.90;;;12.50;99.90;;;;;;4173793;28;20036;-64
2021/08/19 01:25:13;;;;;;;4.10;3.17;;;12.60;99.90;;;;;;4172464;28;20083;-62
2021/08/19 01:27:18;;;;;;;3.03;2.70;;;12.50;99.90;;;;;;4172554;28;20054;-63
2021/08/19 01:29:19;;;;;;;3.70;2.67;;;12.60;99.90;;;;;;4172023;28;20510;-62
2021/08/19 01:31:24;;;;;;;3.37;2.67;;;12.60;99.90;;;;;;4172520;28;20032;-63
2021/08/19 01:33:25;;;;;;;3.80;2.80;;;12.60;99.90;;;;;;4171668;28;20034;-63
2021/08/19 01:35:29;;;;;;;5.60;2.80;;;12.70;99.90;;;;;;4172909;28;20075;-63
2021/08/19 01:37:30;;;;;;;4.37;2.70;;;12.70;99.90;;;;;;4172043;28;20032;-63
2021/08/19 01:39:32;;;;;;;2.60;2.10;;;12.70;99.90;;;;;;4172426;28;20489;-63
2021/08/19 01:41:33;;;;;;;3.57;2.20;;;12.80;99.90;;;;;;4172472;28;20037;-62
2021/08/19 01:43:36;;;;;;;5.17;2.17;;;12.70;99.90;;;;;;4172796;28;20033;-63
2021/08/19 01:45:37;;;;;;;4.03;2.50;;;12.80;99.90;;;;;;4172671;28;20418;-63
2021/08/19 01:47:39;;;;;;;2.80;2.50;;;12.70;99.90;;;;;;4171347;28;20106;-62
2021/08/19 01:49:41;;;;;;;3.07;2.33;;;12.70;99.90;;;;;;4171554;28;20090;-64
2021/08/19 01:51:43;;;;;;;6.40;2.87;;;12.80;99.90;;;;;;4171591;28;20025;-62
2021/08/19 01:53:51;;;;;;;4.50;3.03;;;12.80;99.90;;;;;;4172276;28;20103;-62
2021/08/19 01:56:00;;;;;;;3.27;2.33;;;12.70;99.90;;;;;;4171620;28;20041;-62
2021/08/19 01:58:01;;;;;;;3.77;2.70;;;12.70;99.90;;;;;;4157627;28;20025;-63
2021/08/19 02:00:05;;;;;;;6.17;2.60;;;12.60;99.90;;;;;;4172149;28;20048;-61
2021/08/19 02:02:06;;;;;;;3.73;2.60;;;12.70;99.90;;;;;;4156549;28;20087;-63
2021/08/19 02:04:07;;;;;;;4.13;2.33;;;12.70;99.90;;;;;;4165383;28;20812;-64
2021/08/19 02:06:08;;;;;;;3.47;2.53;;;12.60;99.90;;;;;;4166920;28;20115;-63
2021/08/19 02:08:09;;;;;;;3.37;2.47;;;12.60;99.90;;;;;;4165002;28;20037;-63
2021/08/19 02:10:11;;;;;;;4.07;2.43;;;12.60;99.90;;;;;;4172664;28;20083;-64
2021/08/19 02:12:12;;;;;;;4.40;2.50;;;12.60;99.90;;;;;;4172001;28;20026;-63
2021/08/19 02:14:13;;;;;;;5.20;2.70;;;12.60;99.90;;;;;;4172356;28;20041;-63
2021/08/19 02:16:14;;;;;;;7.20;2.60;;;12.60;99.90;;;;;;4171765;28;20071;-63
2021/08/19 02:18:15;;;;;;;4.43;3.10;;;12.60;99.90;;;;;;4172109;28;20033;-63
2021/08/19 02:20:16;;;;;;;4.50;2.50;;;12.60;99.90;;;;;;4170481;28;20041;-62
2021/08/19 02:22:17;;;;;;;7.73;2.73;;;12.60;99.90;;;;;;4171349;28;21352;-62
2021/08/19 02:24:18;;;;;;;4.03;2.00;;;12.60;99.90;;;;;;4171499;28;20492;-63
2021/08/19 02:26:19;;;;;;;3.43;2.50;;;12.60;99.90;;;;;;4171152;28;20107;-63
2021/08/19 02:28:21;;;;;;;7.03;2.60;;;12.60;99.90;;;;;;4172691;28;20465;-64
2021/08/19 02:30:22;;;;;;;6.17;2.87;;;12.60;99.90;;;;;;4171658;28;20025;-63
2021/08/19 02:32:24;;;;;;;3.80;2.77;;;12.60;99.90;;;;;;4171609;28;20867;-62
2021/08/19 02:34:25;;;;;;;6.13;2.87;;;12.50;99.90;;;;;;4171179;28;20099;-63
2021/08/19 02:36:26;;;;;;;5.47;2.50;;;12.50;99.90;;;;;;4171388;28;20028;-64
2021/08/19 02:38:28;;;;;;;3.53;2.27;;;12.50;99.90;;;;;;4172053;28;20045;-63
2021/08/19 02:40:29;;;;;;;3.67;2.57;;;12.50;99.90;;;;;;4172128;28;20071;-63
2021/08/19 02:42:30;;;;;;;3.97;2.60;;;12.50;99.90;;;;;;4171501;28;20036;-63
2021/08/19 02:44:31;;;;;;;5.30;3.00;;;12.50;99.90;;;;;;4172406;28;20699;-63
2021/08/19 02:46:33;;;;;;;3.27;2.13;;;12.50;99.90;;;;;;4170864;28;20053;-62
2021/08/19 02:48:34;;;;;;;5.63;2.53;;;12.50;99.90;;;;;;4171840;28;20033;-63
2021/08/19 02:50:35;;;;;;;3.37;2.97;;;12.50;99.90;;;;;;4171667;28;20106;-62
2021/08/19 02:52:36;;;;;;;3.67;2.50;;;12.40;99.90;;;;;;4170335;28;20044;-63
2021/08/19 02:54:37;;;;;;;4.13;2.60;;;12.30;99.90;;;;;;4172240;28;20086;-62
2021/08/19 02:56:40;;;;;;;3.53;2.40;;;12.30;99.90;;;;;;4171234;28;20087;-63
2021/08/19 02:58:41;;;;;;;5.87;2.90;;;12.30;99.90;;;;;;4172403;28;20075;-63
2021/08/19 03:00:42;;;;;;;4.90;2.83;;;12.20;99.90;;;;;;4171221;28;20029;-61
2021/08/19 03:02:44;;;;;;;4.90;2.63;;;12.20;99.90;;;;;;4174883;28;20437;-63
2021/08/19 03:04:45;;;;;;;3.97;2.50;;;12.20;99.90;;;;;;4174254;28;20033;-63
2021/08/19 03:06:46;;;;;;;5.13;2.70;;;12.20;99.90;;;;;;4174777;28;20041;-64
2021/08/19 03:08:47;;;;;;;3.87;2.67;;;12.20;99.90;;;;;;4173980;28;20028;-62
2021/08/19 03:10:48;;;;;;;4.20;3.20;;;12.20;99.90;;;;;;4175099;28;20047;-61
2021/08/19 03:12:49;;;;;;;4.03;2.57;;;12.20;99.90;;;;;;4174762;28;20037;-63
2021/08/19 03:14:50;;;;;;;3.03;2.60;;;12.20;99.90;;;;;;4175108;28;20071;-62
2021/08/19 03:16:51;;;;;;;4.77;2.17;;;12.20;99.90;;;;;;4174025;28;20021;-63
2021/08/19 03:18:53;;;;;;;5.20;2.53;;;12.20;99.90;;;;;;4173577;28;20041;-63
2021/08/19 03:20:54;;;;;;;3.17;2.47;;;12.20;99.90;;;;;;4173867;28;20021;-62
2021/08/19 03:22:55;;;;;;;3.83;2.33;;;12.30;99.90;;;;;;4173445;28;20559;-63
2021/08/19 03:24:56;;;;;;;4.20;2.60;;;12.30;99.90;;;;;;4174357;28;20044;-63
2021/08/19 03:26:58;;;;;;;3.37;2.23;;;12.30;99.90;;;;;;4172762;28;20114;-63
2021/08/19 03:28:59;;;;;;;3.83;2.63;;;12.20;99.90;;;;;;4174897;28;20070;-63
2021/08/19 03:31:00;;;;;;;3.83;2.23;;;12.20;99.90;;;;;;4173338;28;20032;-63
2021/08/19 03:33:05;;;;;;;3.80;2.00;;;12.20;99.90;;;;;;4174699;28;20451;-63
2021/08/19 03:35:07;;;;;;;11.03;3.77;;;12.20;99.90;;;;;;4173297;28;20103;-63
2021/08/19 03:37:09;;;;;;;8.57;2.80;;;12.30;99.90;;;;;;4174397;28;20436;-63
2021/08/19 03:39:10;;;;;;;4.67;2.37;;;12.30;99.90;;;;;;4173352;28;20571;-63
2021/08/19 03:41:12;;;;;;;4.80;2.40;;;12.30;99.90;;;;;;4174631;28;20087;-63
2021/08/19 03:43:13;;;;;;;3.77;2.63;;;12.30;99.90;;;;;;4174269;28;20066;-63
2021/08/19 03:45:18;;;;;;;8.97;2.53;;;12.30;99.90;;;;;;4172794;28;20071;-63
2021/08/19 03:47:20;;;;;;;6.23;2.70;;;12.30;99.90;;;;;;4157632;28;20516;-64
2021/08/19 03:49:21;;;;;;;5.30;2.47;;;12.50;99.90;;;;;;4157939;28;20054;-62
2021/08/19 03:51:22;;;;;;;6.47;3.33;;;12.70;99.90;;;;;;4158394;28;20025;-62
2021/08/19 03:53:23;;;;;;;4.33;2.70;;;13.00;99.90;;;;;;4173530;28;20114;-63
2021/08/19 03:55:24;;;;;;;5.73;2.10;;;13.20;99.90;;;;;;4173512;28;20029;-63
2021/08/19 03:57:25;;;;;;;4.23;2.40;;;13.30;99.90;;;;;;4173162;28;20029;-63
2021/08/19 03:59:26;;;;;;;4.83;2.83;;;13.50;99.90;;;;;;4173325;28;20490;-63
2021/08/19 04:01:27;;;;;;;2.80;2.07;;;13.70;99.90;;;;;;4172986;28;20071;-63
2021/08/19 04:03:29;;;;;;;5.73;2.63;;;13.90;99.90;;;;;;4174527;28;20067;-64
2021/08/19 04:05:30;;;;;;;7.77;2.47;;;14.10;99.90;;;;;;4173150;28;20037;-62
2021/08/19 04:07:31;;;;;;;3.30;2.40;;;14.20;99.90;;;;;;4172504;28;20444;-62
2021/08/19 04:09:33;;;;;;;5.83;2.63;;;14.50;99.90;;;;;;4172985;28;20025;-62
2021/08/19 04:11:34;;;;;;;6.47;2.93;;;15.00;99.90;;;;;;4173798;28;20587;-63
2021/08/19 04:13:39;;;;;;;4.83;2.37;;;15.30;99.90;;;;;;4172803;28;20063;-62
2021/08/19 04:15:40;;;;;;;5.53;2.50;;;15.60;99.90;;;;;;4172507;28;20099;-63
2021/08/19 04:17:41;;;;;;;9.60;2.60;;;16.00;99.90;;;;;;4173009;28;20083;-63
2021/08/19 04:19:42;;;;;;;3.17;2.53;;;16.20;99.90;;;;;;4173616;28;20083;-62
2021/08/19 04:21:44;;;;;;;7.95;2.42;;;16.40;99.90;;;;;;4173091;28;20033;-63
2021/08/19 04:23:45;;;;;;;5.35;2.20;;;16.80;99.90;;;;;;4173015;28;20055;-62
2021/08/19 04:25:46;;;;;;;9.65;2.72;;;17.10;99.90;;;;;;4172339;28;20074;-61
2021/08/19 04:27:47;;;;;;;3.50;2.20;;;17.30;99.90;;;;;;4170892;28;20072;-60
2021/08/19 04:29:49;;;;;;;4.25;2.05;;;17.50;99.90;;;;;;4173054;28;20045;-63
2021/08/19 04:31:50;;;;;;;6.57;2.67;;;17.60;99.90;;;;;;4172629;28;20028;-61
2021/08/19 04:33:51;;;;;;;6.93;2.03;;;17.70;99.90;;;;;;4173123;28;20090;-63
2021/08/19 04:35:52;;;;;;;3.17;2.17;;;17.90;99.90;;;;;;4172545;28;20078;-62
2021/08/19 04:37:53;;;;;;;6.10;2.15;;;17.90;99.90;;;;;;4173679;28;20087;-63
2021/08/19 04:39:55;;;;;;;2.80;2.10;;;18.30;99.90;;;;;;4170996;28;20102;-62
2021/08/19 04:41:56;;;;;;;3.40;2.42;;;18.50;99.90;;;;;;4172299;28;20041;-62
2021/08/19 04:43:57;;;;;;;3.75;2.10;;;18.80;99.90;;;;;;4172754;28;20028;-63
2021/08/19 04:45:59;;;;;;;6.07;2.55;;;19.00;99.60;;;;;;4158114;28;20037;-64
2021/08/19 04:48:00;;;;;;;6.05;2.70;;;19.40;99.10;;;;;;4170926;28;20329;-64
2021/08/19 04:50:01;;;;;;;3.53;1.70;;;19.70;98.50;;;;;;4171884;28;20045;-63
2021/08/19 04:52:03;;;;;;;5.88;2.35;;;19.90;98.00;;;;;;4171040;28;20478;-63
2021/08/19 04:54:05;;;;;;;8.18;3.03;;;19.90;97.50;;;;;;4171570;28;20440;-64
2021/08/19 04:56:06;;;;;;;3.78;2.05;;;19.90;97.40;;;;;;4166140;28;20052;-62
2021/08/19 04:58:07;;;;;;;3.28;1.90;;;19.70;97.40;;;;;;4170985;28;20114;-62
2021/08/19 05:00:09;;;;;;;3.60;2.10;;;20.00;97.20;;;;;;4171691;28;20094;-64
2021/08/19 05:02:10;;;;;;;3.40;2.00;;;20.60;96.60;;;;;;4170219;28;20041;-62
2021/08/19 05:04:12;;;;;;;4.28;2.15;;;20.90;95.90;;;;;;4170398;28;20048;-61
2021/08/19 05:06:13;;;;;;;5.65;1.88;;;21.20;95.60;;;;;;4172206;28;20074;-63
2021/08/19 05:08:14;;;;;;;5.43;2.28;;;21.60;95.00;;;;;;4172892;28;20044;-61
2021/08/19 05:10:15;;;;;;;2.78;1.90;;;22.00;94.40;;;;;;4171774;28;20032;-61
2021/08/19 05:12:16;;;;;;;3.53;2.20;;;22.40;93.80;;;;;;4173563;28;20037;-62
2021/08/19 05:14:18;;;;;;;3.60;1.92;;;22.40;93.20;;;;;;4172033;28;20025;-62
2021/08/19 05:16:19;;;;;;;3.35;2.25;;;22.40;93.00;;;;;;4172654;28;20033;-62
2021/08/19 05:18:21;;;;;;;3.65;2.45;;;22.20;92.70;;;;;;4171628;28;20554;-62
2021/08/19 05:20:22;;;;;;;6.25;2.60;;;22.20;92.70;;;;;;4172045;28;20099;-62
2021/08/19 05:22:23;;;;;;;5.88;3.10;;;22.40;92.50;;;;;;4171346;28;20108;-61
2021/08/19 05:24:24;;;;;;;4.10;1.88;;;22.80;91.80;;;;;;4171354;28;20052;-63
2021/08/19 05:26:25;;;;;;;5.07;1.95;;;22.70;91.60;;;;;;4156806;28;20037;-61
2021/08/19 05:28:26;;;;;;;14.02;2.40;;;23.00;91.30;;;;;;4155045;28;20442;-62
2021/08/19 05:30:28;;;;;;;3.80;1.95;;;23.60;90.80;;;;;;4155836;28;20083;-62
2021/08/19 05:32:29;;;;;;;5.90;2.38;;;24.10;90.10;;;;;;4154988;28;20045;-61
2021/08/19 05:34:30;;;;;;;1.98;1.77;;;24.60;88.60;;;;;;4156261;28;20050;-62
2021/08/19 05:36:32;;;;;;;3.85;2.10;;;24.90;87.10;;;;;;4154226;28;20099;-60
2021/08/19 05:38:33;;;;;;;4.05;2.22;;;25.10;86.00;;;;;;4156410;28;20485;-61
2021/08/19 05:40:34;;;;;;;4.30;2.08;;;25.20;84.90;;;;;;4154803;28;20143;-61
2021/08/19 05:42:35;;;;;;;4.03;1.80;;;25.30;84.10;;;;;;4156660;28;20099;-62
2021/08/19 05:44:37;;;;;;;7.32;2.85;;;25.50;83.20;;;;;;4155569;28;20432;-62
2021/08/19 05:46:39;;;;;;;3.40;1.85;;;25.40;82.20;;;;;;4155323;28;20025;-62
2021/08/19 05:48:40;;;;;;;3.72;2.22;;;25.20;82.10;;;;;;4154771;28;20046;-62
2021/08/19 05:50:41;;;;;;;4.25;2.03;;;24.90;81.90;;;;;;4155386;28;20385;-62
2021/08/19 05:52:44;;;;;;;5.40;2.20;;;24.30;82.20;;;;;;4155357;28;20099;-62
2021/08/19 05:54:45;;;;;;;2.08;1.83;;;23.90;83.10;;;;;;4155237;28;20037;-62
2021/08/19 05:56:46;;;;;;;2.53;1.80;;;24.00;83.60;;;;;;4156184;28;20034;-63
2021/08/19 05:58:47;;;;;;;6.22;2.17;;;24.40;82.80;;;;;;4155174;28;20072;-63
2021/08/19 06:00:49;;;;;;;3.97;1.85;;;25.00;81.80;;;;;;4156025;28;20025;-62
2021/08/19 06:02:52;;;;;;;2.47;1.90;;;25.30;80.50;;;;;;4154803;28;20075;-62
2021/08/19 06:04:53;;;;;;;4.57;2.22;;;25.60;80.10;;;;;;4156122;28;20044;-62
2021/08/19 06:06:54;;;;;;;2.80;2.40;;;25.60;79.50;;;;;;4154513;28;20042;-63
2021/08/19 06:08:55;;;;;;;5.72;2.75;;;25.90;79.10;;;;;;4155975;28;20052;-62
2021/08/19 06:10:56;;;;;;;4.78;2.13;;;25.60;78.80;;;;;;4154968;28;20084;-63
2021/08/19 06:12:57;;;;;;;3.55;2.30;;;25.70;78.70;;;;;;4156060;28;20123;-62
2021/08/19 06:14:58;;;;;;;4.70;1.85;;;26.00;78.20;;;;;;4155464;28;20482;-63
2021/08/19 06:16:59;;;;;;;3.58;2.10;;;26.30;77.70;;;;;;4156239;28;20033;-62
2021/08/19 06:19:02;;;;;;;2.83;1.75;;;26.10;77.30;;;;;;4154824;28;20075;-62
2021/08/19 06:21:04;;;;;;;3.05;2.15;;;25.90;77.00;;;;;;4153483;28;20053;-61
2021/08/19 06:23:12;;;;;;;4.80;2.40;;;26.10;77.30;;;;;;4155105;28;20080;-63
2021/08/19 06:25:13;;;;;;;5.10;2.58;;;26.40;76.80;;;;;;4155833;28;20029;-62
2021/08/19 06:27:15;;;;;;;9.52;2.00;;;26.60;75.90;;;;;;4154659;28;20067;-62
2021/08/19 06:29:16;;;;;;;6.18;1.80;;;26.70;75.60;;;;;;4155001;28;20112;-62
2021/08/19 06:31:17;;;;;;;2.55;1.88;;;27.00;75.40;;;;;;4156042;28;20501;-62
2021/08/19 06:33:18;;;;;;;4.10;2.03;;;27.00;75.10;;;;;;4154824;28;20470;-62
2021/08/19 06:35:19;;;;;;;5.18;2.28;;;26.80;74.70;;;;;;4156096;28;20030;-62
2021/08/19 06:37:21;;;;;;;4.55;2.03;;;26.50;74.80;;;;;;4157267;28;20080;-62
2021/08/19 06:39:22;;;;;;;3.95;2.03;;;26.40;74.90;;;;;;4158837;28;20041;-61
2021/08/19 06:41:24;;;;;;;5.20;1.80;;;26.00;75.20;;;;;;4157710;28;20033;-62
2021/08/19 06:43:25;;;;;;;5.22;2.53;;;25.50;75.70;;;;;;4159066;28;20033;-62
2021/08/19 06:45:27;;;;;;;5.32;2.10;;;25.60;76.10;;;;;;4157870;28;20045;-62
2021/08/19 06:47:28;;;;;;;3.40;1.98;;;25.80;76.50;;;;;;4158849;28;20064;-62
2021/08/19 06:49:29;;;;;;;4.93;1.65;;;26.10;75.50;;;;;;4157654;28;20830;-61
2021/08/19 06:51:30;;;;;;;2.60;1.95;;;25.70;75.20;;;;;;4158717;28;20115;-62
2021/08/19 06:53:32;;;;;;;5.20;1.85;;;25.30;76.00;;;;;;4157479;28;20095;-62
2021/08/19 06:55:34;;;;;;;3.83;2.10;;;25.30;76.10;;;;;;4157643;28;20233;-62
2021/08/19 06:57:35;;;;;;;6.47;3.20;;;25.70;75.80;;;;;;4157821;28;20064;-62
2021/08/19 06:59:36;;;;;;;2.95;2.17;;;25.10;75.60;;;;;;4157889;28;20363;-62
2021/08/19 07:01:38;;;;;;;2.45;2.17;;;24.50;76.80;;;;;;4157809;28;20071;-62
2021/08/19 07:03:39;;;;;;;6.45;3.10;;;24.40;77.50;;;;;;4157585;28;20092;-63
2021/08/19 07:05:42;;;;;;;4.25;2.40;;;24.80;77.30;;;;;;4158623;28;20082;-63
2021/08/19 07:07:44;;;;;;;3.60;2.58;;;24.20;77.20;;;;;;4157490;28;20095;-63
2021/08/19 07:09:45;;;;;;;4.68;2.50;;;24.10;78.10;;;;;;4158325;28;20041;-63
2021/08/19 07:11:46;;;;;;;6.47;2.47;;;24.30;78.20;;;;;;4157590;28;20030;-62
2021/08/19 07:13:47;;;;;;;7.00;2.28;;;24.60;77.70;;;;;;4158881;28;20059;-63
2021/08/19 07:15:48;;;;;;;2.90;2.60;;;24.50;77.20;;;;;;4157442;28;20180;-62
2021/08/19 07:17:49;;;;;;;4.45;2.45;;;25.00;76.90;;;;;;4157755;28;20033;-62
2021/08/19 07:19:50;;;;;;;3.58;2.65;;;24.90;76.60;;;;;;4157209;28;20774;-61
2021/08/19 07:21:52;;;;;;;3.65;2.35;;;24.70;76.80;;;;;;4157532;28;20053;-62
2021/08/19 07:23:53;;;;;;;7.47;2.10;;;24.40;77.10;;;;;;4157190;28;20079;-61
2021/08/19 07:25:55;;;;;;;9.30;2.80;;;24.20;77.60;;;;;;4158122;28;20506;-62
2021/08/19 07:27:56;;;;;;;5.45;2.88;;;23.80;78.30;;;;;;4156861;28;20087;-62
2021/08/19 07:29:58;;;;;;;4.53;2.30;;;23.60;79.10;;;;;;4157336;28;20046;-62
2021/08/19 07:31:59;;;;;;;5.25;2.72;;;23.10;79.90;;;;;;4157711;28;20531;-61
2021/08/19 07:34:00;;;;;;;6.43;3.22;;;23.30;80.40;;;;;;4156476;28;20045;-63
2021/08/19 07:36:01;;;;;;;6.65;2.38;;;22.90;80.80;;;;;;4157577;28;20402;-63
2021/08/19 07:38:03;;;;;;;6.68;2.67;;;22.50;82.00;;;;;;4157042;28;20037;-62
2021/08/19 07:40:04;;;;;;;5.88;2.75;;;22.20;83.10;;;;;;4157953;28;20037;-63
2021/08/19 07:42:06;;;;;;;3.42;2.38;;;22.20;83.10;;;;;;4156795;28;20428;-62
2021/08/19 07:44:07;;;;;;;8.30;2.97;;;21.90;84.10;;;;;;4158052;28;20425;-62
2021/08/19 07:46:08;;;;;;;7.57;2.72;;;21.80;85.10;;;;;;4156655;28;20052;-62
2021/08/19 07:48:11;;;;;;;7.40;2.97;;;21.80;85.30;;;;;;4156663;28;20065;-62
2021/08/19 07:50:13;;;;;;;8.70;2.83;;;21.70;85.60;;;;;;4157039;28;20087;-62
2021/08/19 07:52:14;;;;;;;7.57;3.25;;;21.70;85.20;;;;;;4158187;28;20501;-63
2021/08/19 07:54:17;;;;;;;9.13;2.97;;;21.70;86.00;;;;;;4156592;28;20545;-62
2021/08/19 07:56:18;;;;;;;6.47;3.17;;;21.60;86.20;;;;;;4157614;28;20049;-62
2021/08/19 07:58:20;;;;;;;10.68;3.20;;;21.50;87.30;;;;;;4156729;28;20047;-62
2021/08/19 08:00:23;;;;;;;11.60;3.72;;;21.30;87.60;;;;;;4155824;28;20468;-62
2021/08/19 08:02:24;;;;;;;3.53;2.92;;;21.30;88.10;;;;;;4171787;28;20033;-62
2021/08/19 08:04:25;;;;;;;6.10;2.50;;;21.20;88.20;;;;;;4157170;28;20060;-63
2021/08/19 08:06:26;;;;;;;4.07;2.42;;;21.30;87.80;;;;;;4157398;28;20174;-61
2021/08/19 08:08:27;;;;;;;8.70;3.17;;;21.60;87.50;;;;;;4156512;28;20482;-63
2021/08/19 08:10:30;;;;;;;5.07;2.70;;;21.70;87.40;;;;;;4157961;28;20096;-63
2021/08/19 08:12:31;;;;;;;8.82;3.00;;;21.50;87.20;;;;;;4156670;28;20033;-62
2021/08/19 08:14:33;;;;;;;6.82;3.20;;;21.30;87.30;;;;;;4157896;28;20038;-62
2021/08/19 08:16:34;;;;;;;6.85;3.50;;;21.40;87.40;;;;;;4155620;28;20060;-63
2021/08/19 08:18:35;;;;;;;6.53;3.60;;;21.80;86.70;;;;;;4157505;28;20076;-62
2021/08/19 08:20:36;;;;;;;6.03;3.13;;;21.80;86.20;;;;;;4156536;28;20056;-62
2021/08/19 08:22:41;;;;;;;5.10;2.83;;;21.80;86.30;;;;;;4155979;28;20045;-62
2021/08/19 08:24:42;;;;;;;6.40;3.15;;;21.60;86.50;;;;;;4155857;28;20025;-62
2021/08/19 08:26:43;;;;;;;9.82;3.72;;;21.50;86.60;;;;;;4156968;28;20042;-61
2021/08/19 08:28:48;;;;;;;5.35;3.45;;;21.60;86.60;;;;;;4155779;28;20095;-62
2021/08/19 08:30:51;;;;;;;5.47;3.38;;;21.60;86.30;;;;;;4156994;28;20100;-62
2021/08/19 08:32:52;;;;;;;4.25;2.45;;;21.70;86.40;;;;;;4156183;28;20046;-62
2021/08/19 08:34:53;;;;;;;6.15;2.40;;;21.90;86.30;;;;;;4171501;28;20036;-62
2021/08/19 08:36:54;;;;;;;8.68;2.60;;;22.00;85.70;;;;;;4156163;28;20567;-62
2021/08/19 08:38:56;;;;;;;4.32;2.28;;;21.90;85.50;;;;;;4156377;28;20084;-62
2021/08/19 08:40:58;;;;;;;2.83;2.35;;;21.90;85.40;;;;;;4157387;28;20559;-62
2021/08/19 08:42:59;;;;;;;7.85;2.72;;;22.00;85.40;;;;;;4156237;28;20071;-62
2021/08/19 08:45:01;;;;;;;6.70;3.13;;;22.00;85.00;;;;;;4157579;28;20443;-61
2021/08/19 08:47:02;;;;;;;9.73;3.10;;;21.80;85.10;;;;;;4155416;28;20107;-61
2021/08/19 08:49:04;;;;;;;3.40;2.70;;;21.80;85.10;;;;;;4156577;28;20099;-62
2021/08/19 08:51:05;;;;;;;5.57;2.97;;;22.00;85.40;;;;;;4155537;28;20038;-62
2021/08/19 08:53:08;;;;;;;7.95;2.58;;;22.40;84.90;;;;;;4156824;28;20401;-63
2021/08/19 08:55:10;;;;;;;3.95;2.15;;;22.60;84.30;;;;;;4155450;28;20045;-61
2021/08/19 08:57:11;;;;;;;4.03;2.45;;;22.90;84.40;;;;;;4156543;28;20041;-61
2021/08/19 08:59:12;;;;;;;5.47;2.30;;;23.10;84.30;;;;;;4154837;28;20029;-62
2021/08/19 09:01:14;;;;;;;5.97;2.88;;;23.40;83.60;;;;;;4156328;28;20045;-62
2021/08/19 09:03:17;;;;;;;8.05;3.05;;;23.60;83.00;;;;;;4155372;28;20095;-62
2021/08/19 09:05:19;;;;;;;6.07;2.28;;;23.80;82.30;;;;;;4156109;28;20100;-62
2021/08/19 09:07:31;;;;;;;5.82;2.15;;;24.00;82.20;;;;;;4155306;28;20025;-62
2021/08/19 09:09:33;;;;;;;6.25;2.53;;;24.30;81.70;;;;;;4155891;28;20095;-62
2021/08/19 09:11:45;;;;;;;5.07;2.90;;;24.10;80.50;;;;;;4156431;28;20425;-62
2021/08/19 09:13:46;;;;;;;3.67;2.47;;;23.70;80.10;;;;;;4156010;28;20543;-62
2021/08/19 09:15:48;;;;;;;3.67;2.50;;;23.60;81.20;;;;;;4155997;28;20469;-62
2021/08/19 09:17:55;;;;;;;5.90;2.25;;;23.50;81.20;;;;;;4155401;28;20031;-62
2021/08/19 09:20:05;;;;;;;6.40;2.33;;;23.70;81.20;;;;;;4156571;28;20045;-62
2021/08/19 09:22:09;;;;;;;7.95;2.85;;;23.80;79.90;;;;;;4155381;28;20450;-61
2021/08/19 09:24:27;;;;;;;8.60;2.40;;;23.80;80.50;;;;;;4156619;28;20119;-62
2021/08/19 09:26:28;;;;;;;6.43;3.00;;;23.90;80.00;;;;;;4155666;28;20071;-62
2021/08/19 09:28:30;;;;;;;5.35;2.38;;;23.70;80.70;;;;;;4156882;28;20091;-62
2021/08/19 09:30:31;;;;;;;6.85;2.92;;;23.50;81.20;;;;;;4155149;28;20091;-62
2021/08/19 09:32:32;;;;;;;6.53;3.55;;;23.30;81.40;;;;;;4155933;28;20095;-62
2021/08/19 09:34:34;;;;;;;5.68;1.90;;;23.20;81.80;;;;;;4154898;28;20090;-62
2021/08/19 09:36:36;;;;;;;9.93;2.47;;;23.20;81.60;;;;;;4156474;28;20071;-63
2021/08/19 09:38:43;;;;;;;7.78;2.55;;;23.00;81.20;;;;;;4154945;28;20041;-62
2021/08/19 09:41:02;;;;;;;6.53;2.30;;;22.90;81.30;;;;;;4155988;28;20100;-62
2021/08/19 09:43:04;;;;;;;5.63;2.58;;;22.90;80.60;;;;;;4154842;28;20098;-62
2021/08/19 09:45:22;;;;;;;4.95;1.70;;;22.90;81.30;;;;;;4156253;28;20739;-62
2021/08/19 09:47:30;;;;;;;10.75;3.08;;;22.90;80.70;;;;;;4155185;28;20041;-62
2021/08/19 09:49:36;;;;;;;8.23;2.75;;;22.70;81.00;;;;;;4156718;28;20099;-62
2021/08/19 09:51:38;;;;;;;2.90;2.22;;;22.50;81.60;;;;;;4154947;28;20571;-62
2021/08/19 09:53:50;;;;;;;5.10;2.60;;;22.50;82.10;;;;;;4156351;28;20075;-62
2021/08/19 09:55:53;;;;;;;5.38;2.92;;;22.90;82.10;;;;;;4154792;28;20038;-62
2021/08/19 09:57:56;;;;;;;5.72;2.33;;;23.10;82.10;;;;;;4155070;28;20037;-63
2021/08/19 09:59:57;;;;;;;4.57;2.28;;;23.40;81.70;;;;;;4154559;28;20037;-62
2021/08/19 10:01:58;;;;;;;4.55;2.38;;;23.70;81.40;;;;;;4154308;28;20034;-64
2021/08/19 10:03:59;;;;;;;4.93;2.80;;;23.90;80.70;;;;;;4155620;28;20025;-62
2021/08/19 10:06:01;;;;;;;5.13;2.75;;;23.90;80.10;;;;;;4155792;28;20053;-62
2021/08/19 10:08:03;;;;;;;3.80;2.17;;;23.70;79.70;;;;;;4154585;28;20385;-63
2021/08/19 10:10:05;;;;;;;3.63;1.73;;;23.60;80.50;;;;;;4153453;28;20083;-62
2021/08/19 10:12:10;;;;;;;4.80;1.77;;;23.70;80.70;;;;;;4157664;28;20033;-62
2021/08/19 10:14:17;;;;;;;5.38;2.30;;;23.80;80.20;;;;;;4158581;28;20041;-62
2021/08/19 10:16:19;;;;;;;2.45;1.85;;;23.70;79.30;;;;;;4159655;28;20083;-62
2021/08/19 10:18:27;;;;;;;2.45;1.90;;;23.40;79.80;;;;;;4158156;28;20041;-62
2021/08/19 10:20:32;;;;;;;2.30;2.03;;;23.50;79.60;;;;;;4159360;28;20049;-63
2021/08/19 10:22:34;;;;;;;2.80;2.00;;;23.40;79.20;;;;;;4157757;28;20486;-62
2021/08/19 10:24:38;;;;;;;7.07;2.15;;;23.40;78.70;;;;;;4159390;28;20099;-61
2021/08/19 10:26:40;;;;;;;3.50;2.13;;;23.30;78.70;;;;;;4157696;28;20157;-62
2021/08/19 10:28:56;;;;;;;2.70;2.15;;;23.40;78.60;;;;;;4157286;28;20041;-61
2021/08/19 10:31:03;;;;;;;3.55;1.67;;;23.20;78.90;;;;;;4157349;28;20121;-62
2021/08/19 10:33:04;;;;;;;3.05;1.67;;;23.30;78.50;;;;;;4159500;28;20183;-63
2021/08/19 10:35:14;;;;;;;4.75;1.67;;;23.30;78.20;;;;;;4157483;28;20742;-61